sensor_id;sensor_type;location;lat;lon;timestamp;P1;durP1;ratioP1;P2;durP2;ratioP2
15553;SDS011;7878;44.632;10.942;2022-08-18T00:00:50;11.25;;;3.55;;
15553;SDS011;7878;44.632;10.942;2022-08-18T00:03:16;2.70;;;2.50;;
15553;SDS011;7878;44.632;10.942;2022-08-18T00:05:43;5.90;;;2.70;;
15553;SDS011;7878;44.632;10.942;2022-08-18T00:08:09;5.80;;;2.78;;
15553;SDS011;7878;44.632;10.942;2022-08-18T00:10:35;6.38;;;2.80;;
15553;SDS011;7878;44.632;10.942;2022-08-18T00:13:04;5.93;;;2.85;;
15553;SDS011;7878;44.632;10.942;2022-08-18T00:15:30;4.85;;;2.47;;
15553;SDS011;7878;44.632;10.942;2022-08-18T00:17:56;4.78;;;3.10;;
15553;SDS011;7878;44.632;10.942;2022-08-18T00:20:22;5.43;;;2.67;;
15553;SDS011;7878;44.632;10.942;2022-08-18T00:22:49;4.28;;;2.70;;
15553;SDS011;7878;44.632;10.942;2022-08-18T00:25:16;3.70;;;2.63;;
15553;SDS011;7878;44.632;10.942;2022-08-18T00:27:43;4.30;;;3.10;;
15553;SDS011;7878;44.632;10.942;2022-08-18T00:30:10;2.92;;;2.53;;
15553;SDS011;7878;44.632;10.942;2022-08-18T00:32:40;5.20;;;3.03;;
15553;SDS011;7878;44.632;10.942;2022-08-18T00:35:08;6.45;;;3.50;;
15553;SDS011;7878;44.632;10.942;2022-08-18T00:37:46;8.90;;;4.18;;
15553;SDS011;7878;44.632;10.942;2022-08-18T00:40:14;7.13;;;3.97;;
15553;SDS011;7878;44.632;10.942;2022-08-18T00:42:44;7.47;;;3.80;;
15553;SDS011;7878;44.632;10.942;2022-08-18T00:45:20;4.45;;;3.75;;
15553;SDS011;7878;44.632;10.942;2022-08-18T00:47:49;6.05;;;3.40;;
15553;SDS011;7878;44.632;10.942;2022-08-18T00:50:20;6.20;;;3.60;;
15553;SDS011;7878;44.632;10.942;2022-08-18T00:53:19;7.63;;;3.70;;
15553;SDS011;7878;44.632;10.942;2022-08-18T00:56:05;7.82;;;4.53;;
15553;SDS011;7878;44.632;10.942;2022-08-18T00:58:36;8.05;;;3.92;;
15553;SDS011;7878;44.632;10.942;2022-08-18T01:01:31;4.00;;;3.25;;
15553;SDS011;7878;44.632;10.942;2022-08-18T01:04:05;5.63;;;4.10;;
15553;SDS011;7878;44.632;10.942;2022-08-18T01:06:40;4.65;;;3.92;;
15553;SDS011;7878;44.632;10.942;2022-08-18T01:09:10;4.82;;;3.33;;
15553;SDS011;7878;44.632;10.942;2022-08-18T01:11:37;6.95;;;3.88;;
15553;SDS011;7878;44.632;10.942;2022-08-18T01:14:06;6.10;;;3.47;;
15553;SDS011;7878;44.632;10.942;2022-08-18T01:16:33;5.05;;;3.30;;
15553;SDS011;7878;44.632;10.942;2022-08-18T01:19:17;5.43;;;3.47;;
15553;SDS011;7878;44.632;10.942;2022-08-18T01:22:10;4.43;;;3.58;;
15553;SDS011;7878;44.632;10.942;2022-08-18T01:24:57;4.07;;;3.25;;
15553;SDS011;7878;44.632;10.942;2022-08-18T01:27:43;8.20;;;4.45;;
15553;SDS011;7878;44.632;10.942;2022-08-18T01:30:11;9.07;;;3.80;;
15553;SDS011;7878;44.632;10.942;2022-08-18T01:32:40;5.88;;;4.13;;
15553;SDS011;7878;44.632;10.942;2022-08-18T01:35:09;8.98;;;4.28;;
15553;SDS011;7878;44.632;10.942;2022-08-18T01:37:37;6.93;;;4.70;;
15553;SDS011;7878;44.632;10.942;2022-08-18T01:40:05;6.53;;;4.63;;
15553;SDS011;7878;44.632;10.942;2022-08-18T01:42:33;7.43;;;3.95;;
15553;SDS011;7878;44.632;10.942;2022-08-18T01:44:59;6.03;;;4.20;;
15553;SDS011;7878;44.632;10.942;2022-08-18T01:47:28;8.13;;;3.83;;
15553;SDS011;7878;44.632;10.942;2022-08-18T01:49:55;5.10;;;3.90;;
15553;SDS011;7878;44.632;10.942;2022-08-18T01:52:22;7.95;;;3.88;;
15553;SDS011;7878;44.632;10.942;2022-08-18T01:54:49;4.90;;;4.18;;
15553;SDS011;7878;44.632;10.942;2022-08-18T01:57:17;6.80;;;5.05;;
15553;SDS011;7878;44.632;10.942;2022-08-18T01:59:44;8.52;;;4.88;;
15553;SDS011;7878;44.632;10.942;2022-08-18T02:02:11;7.07;;;4.60;;
15553;SDS011;7878;44.632;10.942;2022-08-18T02:04:40;6.80;;;4.75;;
15553;SDS011;7878;44.632;10.942;2022-08-18T02:07:08;7.07;;;4.50;;
15553;SDS011;7878;44.632;10.942;2022-08-18T02:09:36;8.38;;;5.18;;
15553;SDS011;7878;44.632;10.942;2022-08-18T02:12:04;7.88;;;4.25;;
15553;SDS011;7878;44.632;10.942;2022-08-18T02:14:31;8.70;;;4.28;;
15553;SDS011;7878;44.632;10.942;2022-08-18T02:17:01;7.93;;;4.10;;
15553;SDS011;7878;44.632;10.942;2022-08-18T02:19:35;8.20;;;4.10;;
15553;SDS011;7878;44.632;10.942;2022-08-18T02:22:03;8.85;;;4.45;;
15553;SDS011;7878;44.632;10.942;2022-08-18T02:24:30;7.45;;;4.70;;
15553;SDS011;7878;44.632;10.942;2022-08-18T02:26:56;11.43;;;7.22;;
15553;SDS011;7878;44.632;10.942;2022-08-18T02:29:21;13.48;;;9.00;;
15553;SDS011;7878;44.632;10.942;2022-08-18T02:31:47;16.55;;;10.90;;
15553;SDS011;7878;44.632;10.942;2022-08-18T02:34:14;14.05;;;11.68;;
15553;SDS011;7878;44.632;10.942;2022-08-18T02:36:40;14.82;;;10.98;;
15553;SDS011;7878;44.632;10.942;2022-08-18T02:39:06;15.15;;;12.05;;
15553;SDS011;7878;44.632;10.942;2022-08-18T02:41:31;20.33;;;12.30;;
15553;SDS011;7878;44.632;10.942;2022-08-18T02:43:58;15.60;;;12.55;;
15553;SDS011;7878;44.632;10.942;2022-08-18T02:46:24;12.30;;;10.50;;
15553;SDS011;7878;44.632;10.942;2022-08-18T02:48:51;16.52;;;12.27;;
15553;SDS011;7878;44.632;10.942;2022-08-18T02:51:17;15.45;;;10.98;;
15553;SDS011;7878;44.632;10.942;2022-08-18T02:53:44;14.57;;;10.80;;
15553;SDS011;7878;44.632;10.942;2022-08-18T02:58:46;16.05;;;10.40;;
15553;SDS011;7878;44.632;10.942;2022-08-18T03:01:11;14.05;;;10.23;;
15553;SDS011;7878;44.632;10.942;2022-08-18T03:03:37;11.90;;;9.70;;
15553;SDS011;7878;44.632;10.942;2022-08-18T03:06:03;14.80;;;8.85;;
15553;SDS011;7878;44.632;10.942;2022-08-18T03:08:29;15.23;;;9.15;;
15553;SDS011;7878;44.632;10.942;2022-08-18T03:10:56;16.42;;;10.80;;
15553;SDS011;7878;44.632;10.942;2022-08-18T03:13:22;13.77;;;10.30;;
15553;SDS011;7878;44.632;10.942;2022-08-18T03:15:47;10.80;;;9.45;;
15553;SDS011;7878;44.632;10.942;2022-08-18T03:18:13;12.73;;;9.40;;
15553;SDS011;7878;44.632;10.942;2022-08-18T03:20:39;15.98;;;9.98;;
15553;SDS011;7878;44.632;10.942;2022-08-18T03:23:08;14.70;;;9.65;;
15553;SDS011;7878;44.632;10.942;2022-08-18T03:25:33;11.43;;;9.73;;
15553;SDS011;7878;44.632;10.942;2022-08-18T03:28:01;16.27;;;9.82;;
15553;SDS011;7878;44.632;10.942;2022-08-18T03:30:27;13.35;;;9.98;;
15553;SDS011;7878;44.632;10.942;2022-08-18T03:32:53;11.48;;;9.40;;
15553;SDS011;7878;44.632;10.942;2022-08-18T03:35:19;14.40;;;10.10;;
15553;SDS011;7878;44.632;10.942;2022-08-18T03:37:44;13.63;;;9.70;;
15553;SDS011;7878;44.632;10.942;2022-08-18T03:40:10;10.75;;;9.48;;
15553;SDS011;7878;44.632;10.942;2022-08-18T03:42:36;17.25;;;9.90;;
15553;SDS011;7878;44.632;10.942;2022-08-18T03:45:03;14.65;;;9.75;;
15553;SDS011;7878;44.632;10.942;2022-08-18T03:47:29;16.42;;;9.23;;
15553;SDS011;7878;44.632;10.942;2022-08-18T03:49:56;12.32;;;9.15;;
15553;SDS011;7878;44.632;10.942;2022-08-18T03:52:23;13.73;;;10.23;;
15553;SDS011;7878;44.632;10.942;2022-08-18T03:54:49;12.18;;;9.40;;
15553;SDS011;7878;44.632;10.942;2022-08-18T03:57:14;13.23;;;9.02;;
15553;SDS011;7878;44.632;10.942;2022-08-18T03:59:40;18.33;;;10.13;;
15553;SDS011;7878;44.632;10.942;2022-08-18T04:02:07;12.75;;;10.05;;
15553;SDS011;7878;44.632;10.942;2022-08-18T04:04:33;12.55;;;10.18;;
15553;SDS011;7878;44.632;10.942;2022-08-18T04:07:05;18.08;;;11.10;;
15553;SDS011;7878;44.632;10.942;2022-08-18T04:09:33;12.52;;;10.32;;
15553;SDS011;7878;44.632;10.942;2022-08-18T04:12:07;16.85;;;11.52;;
15553;SDS011;7878;44.632;10.942;2022-08-18T04:14:40;15.30;;;12.05;;
15553;SDS011;7878;44.632;10.942;2022-08-18T04:17:07;14.93;;;12.93;;
15553;SDS011;7878;44.632;10.942;2022-08-18T04:19:34;18.42;;;12.98;;
15553;SDS011;7878;44.632;10.942;2022-08-18T04:22:00;18.15;;;12.52;;
15553;SDS011;7878;44.632;10.942;2022-08-18T04:24:29;16.10;;;12.80;;
15553;SDS011;7878;44.632;10.942;2022-08-18T04:26:58;16.92;;;13.50;;
15553;SDS011;7878;44.632;10.942;2022-08-18T04:29:25;16.20;;;14.00;;
15553;SDS011;7878;44.632;10.942;2022-08-18T04:31:51;20.10;;;14.68;;
15553;SDS011;7878;44.632;10.942;2022-08-18T04:34:18;21.27;;;15.10;;
15553;SDS011;7878;44.632;10.942;2022-08-18T04:36:45;20.27;;;15.70;;
15553;SDS011;7878;44.632;10.942;2022-08-18T04:39:11;17.77;;;14.63;;
15553;SDS011;7878;44.632;10.942;2022-08-18T04:41:40;19.08;;;14.65;;
15553;SDS011;7878;44.632;10.942;2022-08-18T04:44:08;21.65;;;15.38;;
15553;SDS011;7878;44.632;10.942;2022-08-18T04:46:36;22.80;;;15.50;;
15553;SDS011;7878;44.632;10.942;2022-08-18T04:49:04;19.70;;;16.08;;
15553;SDS011;7878;44.632;10.942;2022-08-18T04:51:30;20.33;;;15.73;;
15553;SDS011;7878;44.632;10.942;2022-08-18T04:53:56;19.15;;;15.80;;
15553;SDS011;7878;44.632;10.942;2022-08-18T04:56:37;18.90;;;15.25;;
15553;SDS011;7878;44.632;10.942;2022-08-18T04:59:10;17.73;;;15.27;;
15553;SDS011;7878;44.632;10.942;2022-08-18T05:01:41;20.08;;;15.10;;
15553;SDS011;7878;44.632;10.942;2022-08-18T05:04:11;21.67;;;15.18;;
15553;SDS011;7878;44.632;10.942;2022-08-18T05:06:39;18.83;;;15.45;;
15553;SDS011;7878;44.632;10.942;2022-08-18T05:09:06;17.40;;;15.40;;
15553;SDS011;7878;44.632;10.942;2022-08-18T05:11:33;24.83;;;15.32;;
15553;SDS011;7878;44.632;10.942;2022-08-18T05:14:04;23.63;;;16.20;;
15553;SDS011;7878;44.632;10.942;2022-08-18T05:16:32;25.08;;;15.07;;
15553;SDS011;7878;44.632;10.942;2022-08-18T05:19:03;17.55;;;15.40;;
15553;SDS011;7878;44.632;10.942;2022-08-18T05:21:31;21.63;;;15.23;;
15553;SDS011;7878;44.632;10.942;2022-08-18T05:23:58;15.70;;;14.13;;
15553;SDS011;7878;44.632;10.942;2022-08-18T05:26:25;23.10;;;15.18;;
15553;SDS011;7878;44.632;10.942;2022-08-18T05:28:51;17.38;;;14.25;;
15553;SDS011;7878;44.632;10.942;2022-08-18T05:31:18;30.23;;;15.32;;
15553;SDS011;7878;44.632;10.942;2022-08-18T05:33:46;17.13;;;14.45;;
15553;SDS011;7878;44.632;10.942;2022-08-18T05:41:57;20.20;;;15.50;;
15553;SDS011;7878;44.632;10.942;2022-08-18T05:44:34;19.77;;;15.13;;
15553;SDS011;7878;44.632;10.942;2022-08-18T05:47:05;19.23;;;13.85;;
15553;SDS011;7878;44.632;10.942;2022-08-18T05:49:36;17.02;;;14.02;;
15553;SDS011;7878;44.632;10.942;2022-08-18T05:52:04;18.23;;;14.40;;
15553;SDS011;7878;44.632;10.942;2022-08-18T05:54:46;20.02;;;14.32;;
15553;SDS011;7878;44.632;10.942;2022-08-18T05:57:37;16.23;;;13.57;;
15553;SDS011;7878;44.632;10.942;2022-08-18T06:00:12;17.67;;;14.25;;
15553;SDS011;7878;44.632;10.942;2022-08-18T06:02:41;15.75;;;14.10;;
15553;SDS011;7878;44.632;10.942;2022-08-18T06:05:13;20.20;;;14.52;;
15553;SDS011;7878;44.632;10.942;2022-08-18T06:07:50;16.20;;;13.27;;
15553;SDS011;7878;44.632;10.942;2022-08-18T06:10:20;21.27;;;13.30;;
15553;SDS011;7878;44.632;10.942;2022-08-18T06:12:50;18.65;;;14.35;;
15553;SDS011;7878;44.632;10.942;2022-08-18T06:15:22;20.23;;;14.10;;
15553;SDS011;7878;44.632;10.942;2022-08-18T06:29:09;18.10;;;12.05;;
15553;SDS011;7878;44.632;10.942;2022-08-18T06:32:07;17.80;;;12.82;;
15553;SDS011;7878;44.632;10.942;2022-08-18T06:40:35;18.63;;;14.18;;
15553;SDS011;7878;44.632;10.942;2022-08-18T06:43:01;18.27;;;12.75;;
15553;SDS011;7878;44.632;10.942;2022-08-18T06:45:30;16.02;;;13.55;;
15553;SDS011;7878;44.632;10.942;2022-08-18T06:48:04;18.95;;;14.82;;
15553;SDS011;7878;44.632;10.942;2022-08-18T06:50:41;20.95;;;13.27;;
15553;SDS011;7878;44.632;10.942;2022-08-18T06:53:17;14.35;;;12.38;;
15553;SDS011;7878;44.632;10.942;2022-08-18T06:55:45;14.10;;;11.75;;
15553;SDS011;7878;44.632;10.942;2022-08-18T07:00:43;17.38;;;12.98;;
15553;SDS011;7878;44.632;10.942;2022-08-18T07:03:21;19.13;;;13.30;;
15553;SDS011;7878;44.632;10.942;2022-08-18T07:06:03;21.95;;;12.93;;
15553;SDS011;7878;44.632;10.942;2022-08-18T07:11:18;18.30;;;13.27;;
15553;SDS011;7878;44.632;10.942;2022-08-18T07:13:48;19.95;;;13.63;;
15553;SDS011;7878;44.632;10.942;2022-08-18T07:16:22;17.75;;;13.43;;
15553;SDS011;7878;44.632;10.942;2022-08-18T07:18:51;23.15;;;13.15;;
15553;SDS011;7878;44.632;10.942;2022-08-18T07:21:27;20.73;;;12.75;;
15553;SDS011;7878;44.632;10.942;2022-08-18T07:24:05;19.05;;;13.05;;
15553;SDS011;7878;44.632;10.942;2022-08-18T07:29:24;20.38;;;14.52;;
15553;SDS011;7878;44.632;10.942;2022-08-18T07:31:51;15.93;;;12.82;;
15553;SDS011;7878;44.632;10.942;2022-08-18T07:34:21;16.52;;;14.00;;
15553;SDS011;7878;44.632;10.942;2022-08-18T07:39:29;21.70;;;14.05;;
15553;SDS011;7878;44.632;10.942;2022-08-18T07:44:41;14.68;;;11.35;;
15553;SDS011;7878;44.632;10.942;2022-08-18T07:47:19;17.05;;;10.60;;
15553;SDS011;7878;44.632;10.942;2022-08-18T07:49:49;16.70;;;10.13;;
15553;SDS011;7878;44.632;10.942;2022-08-18T07:52:29;12.20;;;9.50;;
15553;SDS011;7878;44.632;10.942;2022-08-18T07:57:45;10.00;;;8.95;;
15553;SDS011;7878;44.632;10.942;2022-08-18T08:00:40;10.63;;;9.50;;
15553;SDS011;7878;44.632;10.942;2022-08-18T08:06:02;10.95;;;8.57;;
15553;SDS011;7878;44.632;10.942;2022-08-18T08:16:40;9.30;;;8.38;;
15553;SDS011;7878;44.632;10.942;2022-08-18T08:22:06;10.10;;;8.88;;
15553;SDS011;7878;44.632;10.942;2022-08-18T08:24:59;12.38;;;9.30;;
15553;SDS011;7878;44.632;10.942;2022-08-18T08:30:39;12.43;;;10.52;;
15553;SDS011;7878;44.632;10.942;2022-08-18T08:33:33;12.90;;;10.30;;
15553;SDS011;7878;44.632;10.942;2022-08-18T08:36:18;11.98;;;10.73;;
15553;SDS011;7878;44.632;10.942;2022-08-18T08:38:58;16.13;;;10.98;;
15553;SDS011;7878;44.632;10.942;2022-08-18T08:44:08;13.73;;;11.60;;
15553;SDS011;7878;44.632;10.942;2022-08-18T08:47:17;14.13;;;11.20;;
15553;SDS011;7878;44.632;10.942;2022-08-18T08:49:59;17.70;;;11.48;;
15553;SDS011;7878;44.632;10.942;2022-08-18T08:52:38;13.98;;;11.57;;
15553;SDS011;7878;44.632;10.942;2022-08-18T08:55:41;17.85;;;12.25;;
15553;SDS011;7878;44.632;10.942;2022-08-18T09:00:50;22.42;;;15.93;;
15553;SDS011;7878;44.632;10.942;2022-08-18T09:05:50;36.20;;;20.27;;
15553;SDS011;7878;44.632;10.942;2022-08-18T09:23:10;36.80;;;22.23;;
15553;SDS011;7878;44.632;10.942;2022-08-18T09:28:09;40.65;;;23.52;;
15553;SDS011;7878;44.632;10.942;2022-08-18T09:33:21;45.33;;;25.98;;
15553;SDS011;7878;44.632;10.942;2022-08-18T09:36:07;112.65;;;23.45;;
15553;SDS011;7878;44.632;10.942;2022-08-18T09:38:43;28.60;;;11.48;;
15553;SDS011;7878;44.632;10.942;2022-08-18T09:41:44;13.68;;;6.18;;
15553;SDS011;7878;44.632;10.942;2022-08-18T09:49:50;18.08;;;9.57;;
15553;SDS011;7878;44.632;10.942;2022-08-18T09:57:27;19.60;;;10.70;;
15553;SDS011;7878;44.632;10.942;2022-08-18T09:59:56;25.67;;;11.88;;
15553;SDS011;7878;44.632;10.942;2022-08-18T10:10:43;13.93;;;7.75;;
15553;SDS011;7878;44.632;10.942;2022-08-18T10:26:58;13.27;;;7.10;;
15553;SDS011;7878;44.632;10.942;2022-08-18T10:37:24;4.93;;;3.47;;
15553;SDS011;7878;44.632;10.942;2022-08-18T10:39:59;5.03;;;3.60;;
15553;SDS011;7878;44.632;10.942;2022-08-18T10:42:38;6.65;;;3.10;;
15553;SDS011;7878;44.632;10.942;2022-08-18T10:47:41;4.65;;;2.97;;
15553;SDS011;7878;44.632;10.942;2022-08-18T10:50:20;2.95;;;2.28;;
15553;SDS011;7878;44.632;10.942;2022-08-18T11:01:19;4.00;;;2.25;;
15553;SDS011;7878;44.632;10.942;2022-08-18T11:04:04;8.07;;;3.60;;
15553;SDS011;7878;44.632;10.942;2022-08-18T11:06:52;5.30;;;3.20;;
15553;SDS011;7878;44.632;10.942;2022-08-18T11:09:27;7.68;;;3.97;;
15553;SDS011;7878;44.632;10.942;2022-08-18T11:11:54;5.28;;;4.38;;
15553;SDS011;7878;44.632;10.942;2022-08-18T11:14:46;7.90;;;4.28;;
15553;SDS011;7878;44.632;10.942;2022-08-18T11:18:07;5.57;;;4.53;;
15553;SDS011;7878;44.632;10.942;2022-08-18T11:20:20;6.57;;;3.67;;
15553;SDS011;7878;44.632;10.942;2022-08-18T11:22:55;5.80;;;4.25;;
15553;SDS011;7878;44.632;10.942;2022-08-18T11:27:51;7.20;;;4.82;;
15553;SDS011;7878;44.632;10.942;2022-08-18T11:30:18;5.68;;;4.60;;
15553;SDS011;7878;44.632;10.942;2022-08-18T11:32:44;11.32;;;4.68;;
15553;SDS011;7878;44.632;10.942;2022-08-18T11:35:13;6.10;;;4.70;;
15553;SDS011;7878;44.632;10.942;2022-08-18T11:37:52;8.88;;;4.50;;
15553;SDS011;7878;44.632;10.942;2022-08-18T11:53:22;5.82;;;3.22;;
15553;SDS011;7878;44.632;10.942;2022-08-18T11:56:01;4.32;;;2.78;;
15553;SDS011;7878;44.632;10.942;2022-08-18T11:58:58;3.55;;;3.05;;
15553;SDS011;7878;44.632;10.942;2022-08-18T12:06:55;5.47;;;4.90;;
15553;SDS011;7878;44.632;10.942;2022-08-18T12:14:54;10.02;;;3.58;;
15553;SDS011;7878;44.632;10.942;2022-08-18T12:17:20;4.93;;;3.10;;
15553;SDS011;7878;44.632;10.942;2022-08-18T12:19:46;7.75;;;3.40;;
15553;SDS011;7878;44.632;10.942;2022-08-18T12:22:15;5.65;;;3.72;;
15553;SDS011;7878;44.632;10.942;2022-08-18T12:24:49;4.93;;;3.55;;
15553;SDS011;7878;44.632;10.942;2022-08-18T12:27:17;4.15;;;3.33;;
15553;SDS011;7878;44.632;10.942;2022-08-18T12:29:45;5.55;;;3.67;;
15553;SDS011;7878;44.632;10.942;2022-08-18T12:32:12;3.78;;;2.33;;
15553;SDS011;7878;44.632;10.942;2022-08-18T12:34:38;4.28;;;2.60;;
15553;SDS011;7878;44.632;10.942;2022-08-18T12:37:04;4.82;;;2.85;;
15553;SDS011;7878;44.632;10.942;2022-08-18T12:39:33;2.17;;;1.40;;
15553;SDS011;7878;44.632;10.942;2022-08-18T12:42:00;2.05;;;1.30;;
15553;SDS011;7878;44.632;10.942;2022-08-18T12:44:26;4.22;;;1.90;;
15553;SDS011;7878;44.632;10.942;2022-08-18T12:46:53;2.25;;;1.73;;
15553;SDS011;7878;44.632;10.942;2022-08-18T12:49:20;2.17;;;1.70;;
15553;SDS011;7878;44.632;10.942;2022-08-18T12:51:47;1.90;;;1.55;;
15553;SDS011;7878;44.632;10.942;2022-08-18T12:54:14;1.98;;;1.60;;
15553;SDS011;7878;44.632;10.942;2022-08-18T12:56:41;2.58;;;1.55;;
15553;SDS011;7878;44.632;10.942;2022-08-18T12:59:14;7.13;;;1.80;;
15553;SDS011;7878;44.632;10.942;2022-08-18T13:01:40;2.88;;;1.40;;
15553;SDS011;7878;44.632;10.942;2022-08-18T13:04:06;3.58;;;1.50;;
15553;SDS011;7878;44.632;10.942;2022-08-18T13:06:33;1.67;;;1.50;;
15553;SDS011;7878;44.632;10.942;2022-08-18T13:09:02;2.80;;;1.20;;
15553;SDS011;7878;44.632;10.942;2022-08-18T13:11:28;4.40;;;1.20;;
15553;SDS011;7878;44.632;10.942;2022-08-18T13:13:54;1.17;;;0.75;;
15553;SDS011;7878;44.632;10.942;2022-08-18T13:16:20;0.77;;;0.70;;
15553;SDS011;7878;44.632;10.942;2022-08-18T13:18:46;0.77;;;0.65;;
15553;SDS011;7878;44.632;10.942;2022-08-18T13:21:12;1.42;;;0.80;;
15553;SDS011;7878;44.632;10.942;2022-08-18T13:23:40;2.38;;;0.80;;
15553;SDS011;7878;44.632;10.942;2022-08-18T13:26:07;1.33;;;0.82;;
15553;SDS011;7878;44.632;10.942;2022-08-18T13:28:36;4.78;;;0.93;;
15553;SDS011;7878;44.632;10.942;2022-08-18T13:31:04;0.88;;;0.80;;
15553;SDS011;7878;44.632;10.942;2022-08-18T13:33:30;0.85;;;0.85;;
15553;SDS011;7878;44.632;10.942;2022-08-18T13:35:57;3.60;;;1.10;;
15553;SDS011;7878;44.632;10.942;2022-08-18T13:38:23;3.28;;;1.00;;
15553;SDS011;7878;44.632;10.942;2022-08-18T13:40:49;4.72;;;1.02;;
15553;SDS011;7878;44.632;10.942;2022-08-18T13:43:20;1.85;;;1.10;;
15553;SDS011;7878;44.632;10.942;2022-08-18T13:45:51;0.73;;;0.73;;
15553;SDS011;7878;44.632;10.942;2022-08-18T13:48:16;1.60;;;1.10;;
15553;SDS011;7878;44.632;10.942;2022-08-18T13:50:42;0.77;;;0.70;;
15553;SDS011;7878;44.632;10.942;2022-08-18T13:53:13;1.67;;;0.73;;
15553;SDS011;7878;44.632;10.942;2022-08-18T13:55:42;4.38;;;1.50;;
15553;SDS011;7878;44.632;10.942;2022-08-18T13:58:08;0.82;;;0.80;;
15553;SDS011;7878;44.632;10.942;2022-08-18T14:00:34;2.70;;;0.90;;
15553;SDS011;7878;44.632;10.942;2022-08-18T14:03:00;1.33;;;0.80;;
15553;SDS011;7878;44.632;10.942;2022-08-18T14:05:25;1.33;;;1.00;;
15553;SDS011;7878;44.632;10.942;2022-08-18T14:07:53;3.35;;;1.13;;
15553;SDS011;7878;44.632;10.942;2022-08-18T14:10:18;3.22;;;1.10;;
15553;SDS011;7878;44.632;10.942;2022-08-18T14:12:44;4.22;;;1.10;;
15553;SDS011;7878;44.632;10.942;2022-08-18T14:15:11;1.95;;;0.90;;
15553;SDS011;7878;44.632;10.942;2022-08-18T14:17:39;1.58;;;0.82;;
15553;SDS011;7878;44.632;10.942;2022-08-18T14:20:06;3.47;;;1.50;;
15553;SDS011;7878;44.632;10.942;2022-08-18T14:22:53;1.50;;;0.93;;
15553;SDS011;7878;44.632;10.942;2022-08-18T14:25:39;1.10;;;1.10;;
15553;SDS011;7878;44.632;10.942;2022-08-18T14:28:40;2.20;;;1.08;;
15553;SDS011;7878;44.632;10.942;2022-08-18T14:31:06;2.72;;;1.20;;
15553;SDS011;7878;44.632;10.942;2022-08-18T14:33:32;1.35;;;1.00;;
15553;SDS011;7878;44.632;10.942;2022-08-18T14:35:59;1.90;;;1.10;;
15553;SDS011;7878;44.632;10.942;2022-08-18T14:38:25;1.20;;;0.95;;
15553;SDS011;7878;44.632;10.942;2022-08-18T14:40:50;2.00;;;1.10;;
15553;SDS011;7878;44.632;10.942;2022-08-18T14:43:17;1.77;;;1.13;;
15553;SDS011;7878;44.632;10.942;2022-08-18T14:45:46;2.25;;;1.25;;
15553;SDS011;7878;44.632;10.942;2022-08-18T14:48:16;1.38;;;1.00;;
15553;SDS011;7878;44.632;10.942;2022-08-18T14:50:45;2.10;;;1.23;;
15553;SDS011;7878;44.632;10.942;2022-08-18T14:53:13;1.30;;;1.20;;
15553;SDS011;7878;44.632;10.942;2022-08-18T14:55:39;2.45;;;1.35;;
15553;SDS011;7878;44.632;10.942;2022-08-18T14:58:05;1.27;;;1.17;;
15553;SDS011;7878;44.632;10.942;2022-08-18T15:00:31;4.28;;;1.10;;
15553;SDS011;7878;44.632;10.942;2022-08-18T15:02:57;1.20;;;1.10;;
15553;SDS011;7878;44.632;10.942;2022-08-18T15:05:23;2.13;;;1.45;;
15553;SDS011;7878;44.632;10.942;2022-08-18T15:07:48;3.17;;;1.17;;
15553;SDS011;7878;44.632;10.942;2022-08-18T15:10:14;1.63;;;1.30;;
15553;SDS011;7878;44.632;10.942;2022-08-18T15:12:40;2.40;;;1.55;;
15553;SDS011;7878;44.632;10.942;2022-08-18T15:15:08;1.60;;;1.50;;
15553;SDS011;7878;44.632;10.942;2022-08-18T15:17:36;5.95;;;1.45;;
15553;SDS011;7878;44.632;10.942;2022-08-18T15:20:04;2.60;;;1.60;;
15553;SDS011;7878;44.632;10.942;2022-08-18T15:22:30;2.30;;;1.50;;
15553;SDS011;7878;44.632;10.942;2022-08-18T15:25:14;3.28;;;1.20;;
15553;SDS011;7878;44.632;10.942;2022-08-18T15:28:20;1.85;;;1.35;;
15553;SDS011;7878;44.632;10.942;2022-08-18T15:30:48;1.30;;;1.20;;
15553;SDS011;7878;44.632;10.942;2022-08-18T15:33:15;3.97;;;1.70;;
15553;SDS011;7878;44.632;10.942;2022-08-18T15:35:42;3.83;;;1.10;;
15553;SDS011;7878;44.632;10.942;2022-08-18T15:38:12;1.65;;;1.55;;
15553;SDS011;7878;44.632;10.942;2022-08-18T15:40:54;2.17;;;1.05;;
15553;SDS011;7878;44.632;10.942;2022-08-18T15:43:22;1.30;;;1.20;;
15553;SDS011;7878;44.632;10.942;2022-08-18T15:45:49;1.50;;;1.40;;
15553;SDS011;7878;44.632;10.942;2022-08-18T15:48:16;2.33;;;1.35;;
15553;SDS011;7878;44.632;10.942;2022-08-18T15:50:43;2.38;;;1.60;;
15553;SDS011;7878;44.632;10.942;2022-08-18T15:53:12;1.63;;;1.45;;
15553;SDS011;7878;44.632;10.942;2022-08-18T15:55:44;5.85;;;1.80;;
15553;SDS011;7878;44.632;10.942;2022-08-18T15:58:10;1.38;;;1.27;;
15553;SDS011;7878;44.632;10.942;2022-08-18T16:00:38;3.17;;;1.40;;
15553;SDS011;7878;44.632;10.942;2022-08-18T16:03:10;3.20;;;1.30;;
15553;SDS011;7878;44.632;10.942;2022-08-18T16:05:39;2.35;;;1.25;;
15553;SDS011;7878;44.632;10.942;2022-08-18T16:08:09;1.70;;;1.40;;
15553;SDS011;7878;44.632;10.942;2022-08-18T16:10:36;1.77;;;1.45;;
15553;SDS011;7878;44.632;10.942;2022-08-18T16:13:04;5.78;;;1.63;;
15553;SDS011;7878;44.632;10.942;2022-08-18T16:15:34;3.97;;;1.58;;
15553;SDS011;7878;44.632;10.942;2022-08-18T16:18:03;2.60;;;1.48;;
15553;SDS011;7878;44.632;10.942;2022-08-18T16:20:30;4.90;;;1.60;;
15553;SDS011;7878;44.632;10.942;2022-08-18T16:22:56;1.77;;;1.38;;
15553;SDS011;7878;44.632;10.942;2022-08-18T16:25:23;3.75;;;1.20;;
15553;SDS011;7878;44.632;10.942;2022-08-18T16:27:49;2.72;;;1.27;;
15553;SDS011;7878;44.632;10.942;2022-08-18T16:30:17;3.22;;;1.23;;
15553;SDS011;7878;44.632;10.942;2022-08-18T16:32:46;2.30;;;1.30;;
15553;SDS011;7878;44.632;10.942;2022-08-18T16:35:12;1.75;;;1.23;;
15553;SDS011;7878;44.632;10.942;2022-08-18T16:37:38;1.23;;;1.08;;
15553;SDS011;7878;44.632;10.942;2022-08-18T16:40:05;3.00;;;1.20;;
15553;SDS011;7878;44.632;10.942;2022-08-18T16:42:32;1.42;;;1.30;;
15553;SDS011;7878;44.632;10.942;2022-08-18T16:44:58;6.60;;;1.38;;
15553;SDS011;7878;44.632;10.942;2022-08-18T16:47:25;2.88;;;1.60;;
15553;SDS011;7878;44.632;10.942;2022-08-18T16:49:51;4.10;;;1.70;;
15553;SDS011;7878;44.632;10.942;2022-08-18T16:52:17;1.85;;;1.60;;
15553;SDS011;7878;44.632;10.942;2022-08-18T16:54:44;1.85;;;1.60;;
15553;SDS011;7878;44.632;10.942;2022-08-18T16:57:11;4.32;;;1.70;;
15553;SDS011;7878;44.632;10.942;2022-08-18T16:59:37;1.83;;;1.73;;
15553;SDS011;7878;44.632;10.942;2022-08-18T17:02:22;1.90;;;1.77;;
15553;SDS011;7878;44.632;10.942;2022-08-18T17:05:07;2.28;;;1.63;;
15553;SDS011;7878;44.632;10.942;2022-08-18T17:07:34;4.15;;;2.10;;
15553;SDS011;7878;44.632;10.942;2022-08-18T17:10:01;2.65;;;1.70;;
15553;SDS011;7878;44.632;10.942;2022-08-18T17:12:28;2.63;;;2.00;;
15553;SDS011;7878;44.632;10.942;2022-08-18T17:14:54;2.78;;;1.77;;
15553;SDS011;7878;44.632;10.942;2022-08-18T17:17:20;1.73;;;1.63;;
15553;SDS011;7878;44.632;10.942;2022-08-18T17:19:47;2.50;;;1.50;;
15553;SDS011;7878;44.632;10.942;2022-08-18T17:22:14;3.25;;;1.77;;
15553;SDS011;7878;44.632;10.942;2022-08-18T17:24:40;4.63;;;2.33;;
15553;SDS011;7878;44.632;10.942;2022-08-18T17:32:49;3.95;;;2.10;;
15553;SDS011;7878;44.632;10.942;2022-08-18T17:35:20;4.47;;;2.30;;
15553;SDS011;7878;44.632;10.942;2022-08-18T17:37:51;1.80;;;1.67;;
15553;SDS011;7878;44.632;10.942;2022-08-18T17:40:28;4.55;;;1.67;;
15553;SDS011;7878;44.632;10.942;2022-08-18T17:43:16;1.63;;;1.52;;
15553;SDS011;7878;44.632;10.942;2022-08-18T17:45:43;2.92;;;1.60;;
15553;SDS011;7878;44.632;10.942;2022-08-18T17:48:17;3.45;;;1.88;;